Government of Jersey

Home Log in

METAR EGJJ 220020Z AUTO 04004KT 9999 NCD 10/08 Q1021

METAR EGJB 212350Z 33003KT CAVOK 10/10 Q1021

METAR LFRD 220000Z AUTO 21003KT 1000 0450 R35L/1500D BCFG FEW001 09/08 Q1021 TEMPO 0300 FG VV///

METAR LFRC 220000Z AUTO 30005KT CAVOK 09/07 Q1021